createdAt,value
2022-11-08T00:01:33.432Z,11.08
2022-11-08T00:04:00.108Z,11.06
2022-11-08T00:06:45.312Z,11.22
2022-11-08T00:09:30.151Z,11.14
2022-11-08T00:12:16.823Z,10.89
2022-11-08T00:14:43.987Z,10.92
2022-11-08T00:17:10.190Z,11.06
2022-11-08T00:19:36.478Z,10.94
2022-11-08T00:22:02.805Z,11.16
2022-11-08T00:24:29.067Z,11.16
2022-11-08T00:26:55.416Z,11.16
2022-11-08T00:29:21.701Z,11.10
2022-11-08T00:31:48.148Z,10.98
2022-11-08T00:34:14.420Z,11.07
2022-11-08T00:36:40.679Z,11.02
2022-11-08T00:39:06.952Z,10.94
2022-11-08T00:41:33.211Z,10.83
2022-11-08T00:43:59.476Z,10.94
2022-11-08T00:46:25.757Z,10.87
2022-11-08T00:48:52.033Z,10.91
2022-11-08T00:51:18.297Z,10.83
2022-11-08T00:53:44.570Z,10.73
2022-11-08T00:56:10.831Z,10.39
2022-11-08T00:58:37.111Z,10.78
2022-11-08T01:01:03.412Z,10.80
2022-11-08T01:03:29.713Z,10.90
2022-11-08T01:05:56.022Z,10.96
2022-11-08T01:08:22.320Z,10.87
2022-11-08T01:10:48.594Z,10.90
2022-11-08T01:13:14.858Z,10.82
2022-11-08T01:15:41.305Z,10.70
2022-11-08T01:18:07.692Z,10.78
2022-11-08T01:20:33.955Z,10.71
2022-11-08T01:23:00.216Z,10.55
2022-11-08T01:25:26.497Z,10.57
2022-11-08T01:27:52.761Z,10.53
2022-11-08T01:30:19.032Z,10.68
2022-11-08T01:32:48.711Z,10.61
2022-11-08T01:35:14.971Z,10.47
2022-11-08T01:37:41.230Z,10.48
2022-11-08T01:40:07.511Z,10.43
2022-11-08T01:42:33.796Z,9.76
2022-11-08T01:45:00.190Z,10.24
2022-11-08T01:47:26.456Z,9.70
2022-11-08T01:49:52.730Z,9.92
2022-11-08T01:52:18.999Z,10.02
2022-11-08T01:54:45.287Z,10.09
2022-11-08T01:57:11.538Z,9.96
2022-11-08T01:59:37.815Z,9.85
2022-11-08T02:02:04.164Z,9.54
2022-11-08T02:04:30.478Z,9.64
2022-11-08T02:06:56.740Z,9.68
2022-11-08T02:09:23.034Z,9.74
2022-11-08T02:11:49.313Z,9.88
2022-11-08T02:14:15.636Z,9.97
2022-11-08T02:16:41.894Z,9.90
2022-11-08T02:19:08.156Z,9.92
2022-11-08T02:21:34.420Z,9.93
2022-11-08T02:24:00.714Z,9.44
2022-11-08T02:26:26.972Z,9.67
2022-11-08T02:28:53.251Z,9.70
2022-11-08T02:31:20.002Z,9.58
2022-11-08T02:33:46.271Z,9.73
2022-11-08T02:36:12.553Z,9.61
2022-11-08T02:38:38.824Z,9.77
2022-11-08T02:41:05.082Z,9.80
2022-11-08T02:43:31.339Z,9.71
2022-11-08T02:45:57.602Z,9.68
2022-11-08T02:48:23.868Z,9.57
2022-11-08T02:50:50.303Z,9.69
2022-11-08T02:53:16.595Z,9.66
2022-11-08T02:55:42.867Z,9.34
2022-11-08T02:58:09.147Z,9.66
2022-11-08T03:00:35.603Z,9.69
2022-11-08T03:03:01.870Z,9.69
2022-11-08T03:05:28.135Z,9.65
2022-11-08T03:07:54.538Z,9.56
2022-11-08T03:10:20.793Z,9.58
2022-11-08T03:12:47.113Z,9.27
2022-11-08T03:15:13.546Z,9.37
2022-11-08T03:17:39.848Z,9.44
2022-11-08T03:20:06.303Z,9.38
2022-11-08T03:22:32.580Z,9.17
2022-11-08T03:24:58.849Z,9.40
2022-11-08T03:27:25.114Z,9.30
2022-11-08T03:29:51.362Z,9.27
2022-11-08T03:32:17.627Z,9.22
2022-11-08T03:34:43.954Z,9.22
2022-11-08T03:37:10.206Z,9.23
2022-11-08T03:39:36.463Z,9.13
2022-11-08T03:42:06.316Z,9.27
2022-11-08T03:44:32.592Z,9.17
2022-11-08T03:46:58.895Z,8.54
2022-11-08T03:49:25.202Z,8.73
2022-11-08T03:51:51.679Z,9.01
2022-11-08T03:54:17.940Z,9.20
2022-11-08T03:56:44.232Z,9.09
2022-11-08T03:59:10.527Z,8.99
2022-11-08T04:01:36.965Z,8.93
2022-11-08T04:04:03.314Z,8.90
2022-11-08T04:06:29.585Z,8.90
2022-11-08T04:08:55.779Z,9.07
2022-11-08T04:11:40.886Z,9.05
2022-11-08T04:14:25.665Z,9.05
2022-11-08T04:16:51.961Z,9.16
2022-11-08T04:19:37.005Z,9.01
2022-11-08T04:22:03.300Z,8.79
2022-11-08T04:24:29.565Z,8.97
2022-11-08T04:26:55.879Z,8.92
2022-11-08T04:29:22.155Z,9.07
2022-11-08T04:31:48.472Z,9.09
2022-11-08T04:34:16.655Z,8.91
2022-11-08T04:36:43.218Z,8.84
2022-11-08T04:39:09.471Z,8.70
2022-11-08T04:41:35.786Z,8.81
2022-11-08T04:44:02.045Z,8.62
2022-11-08T04:46:28.379Z,8.80
2022-11-08T04:48:54.635Z,8.52
2022-11-08T04:51:20.955Z,8.73
2022-11-08T04:53:47.218Z,8.70
2022-11-08T04:56:13.482Z,8.54
2022-11-08T04:58:39.743Z,8.35
2022-11-08T05:01:06.016Z,8.14
2022-11-08T05:03:32.311Z,8.45
2022-11-08T05:05:58.563Z,8.39
2022-11-08T05:08:24.833Z,8.47
2022-11-08T05:10:51.090Z,8.44
2022-11-08T05:13:17.352Z,8.37
2022-11-08T05:15:43.536Z,8.58
2022-11-08T05:18:09.798Z,8.75
2022-11-08T05:20:54.877Z,8.60
2022-11-08T05:23:23.885Z,8.54
2022-11-08T05:25:50.175Z,8.60
2022-11-08T05:28:16.767Z,8.40
2022-11-08T05:30:43.398Z,8.49
2022-11-08T05:33:09.750Z,8.49
2022-11-08T05:35:36.086Z,8.49
2022-11-08T05:38:02.387Z,8.41
2022-11-08T05:40:33.187Z,8.48
2022-11-08T05:42:59.838Z,8.49
2022-11-08T05:45:26.098Z,8.34
2022-11-08T05:47:52.347Z,8.37
2022-11-08T05:50:19.649Z,8.46
2022-11-08T05:52:46.309Z,8.59
2022-11-08T05:55:12.503Z,8.59
2022-11-08T05:57:38.717Z,8.61
2022-11-08T06:00:05.002Z,8.41
2022-11-08T06:02:33.049Z,8.46
2022-11-08T06:04:59.467Z,8.55
2022-11-08T06:07:25.727Z,8.54
2022-11-08T06:09:51.961Z,8.59
2022-11-08T06:12:18.233Z,8.63
2022-11-08T06:14:44.436Z,8.30
2022-11-08T06:17:10.635Z,8.50
2022-11-08T06:19:36.889Z,8.54
2022-11-08T06:22:03.158Z,8.54
2022-11-08T06:24:29.459Z,8.58
2022-11-08T06:26:55.715Z,8.64
2022-11-08T06:29:21.900Z,8.62
2022-11-08T06:31:48.183Z,8.63
2022-11-08T06:34:14.474Z,8.65
2022-11-08T06:36:40.657Z,8.71
2022-11-08T06:39:06.871Z,8.73
2022-11-08T06:41:33.536Z,8.70
2022-11-08T06:43:59.803Z,8.76
2022-11-08T06:46:26.086Z,8.71
2022-11-08T06:48:52.293Z,8.94
2022-11-08T06:51:18.563Z,9.04
2022-11-08T06:53:44.859Z,9.03
2022-11-08T06:56:11.081Z,9.18
2022-11-08T06:58:37.346Z,9.30
2022-11-08T07:01:03.677Z,9.36
2022-11-08T07:03:29.944Z,9.35
2022-11-08T07:05:56.215Z,9.57
2022-11-08T07:08:24.247Z,9.65
2022-11-08T07:10:50.738Z,9.86
2022-11-08T07:13:17.464Z,9.75
2022-11-08T07:15:45.331Z,9.87
2022-11-08T07:18:11.639Z,9.94
2022-11-08T07:20:38.272Z,9.97
2022-11-08T07:23:04.566Z,10.04
2022-11-08T07:25:30.917Z,10.24
2022-11-08T07:27:57.195Z,10.25
2022-11-08T07:30:23.473Z,10.25
2022-11-08T07:32:49.792Z,10.28
2022-11-08T07:35:16.063Z,10.32
2022-11-08T07:37:42.328Z,10.40
2022-11-08T07:40:08.614Z,10.52
2022-11-08T07:43:04.663Z,10.40
2022-11-08T07:45:24.549Z,10.85
2022-11-08T07:47:50.808Z,10.72
2022-11-08T07:50:18.057Z,10.89
2022-11-08T07:52:44.382Z,10.92
2022-11-08T07:55:10.695Z,10.95
2022-11-08T07:57:36.965Z,10.92
2022-11-08T08:00:07.540Z,11.13
2022-11-08T08:02:34.294Z,11.26
2022-11-08T08:05:00.578Z,11.23
2022-11-08T08:07:26.844Z,11.22
2022-11-08T08:09:53.112Z,11.49
2022-11-08T08:12:19.405Z,11.48
2022-11-08T08:14:45.670Z,11.53
2022-11-08T08:17:11.946Z,11.42
2022-11-08T08:19:38.208Z,11.64
2022-11-08T08:22:04.518Z,11.50
2022-11-08T08:24:30.813Z,11.62
2022-11-08T08:26:57.254Z,11.80
2022-11-08T08:29:23.509Z,11.96
2022-11-08T08:31:49.774Z,12.01
2022-11-08T08:34:16.139Z,12.09
2022-11-08T08:36:43.446Z,11.99
2022-11-08T08:39:09.715Z,12.12
2022-11-08T08:41:37.514Z,12.19
2022-11-08T08:44:03.770Z,12.28
2022-11-08T08:46:30.098Z,12.47
2022-11-08T08:48:56.363Z,12.47
2022-11-08T08:51:22.639Z,12.59
2022-11-08T08:53:48.928Z,12.59
2022-11-08T08:56:15.226Z,12.66
2022-11-08T08:58:42.281Z,12.97
2022-11-08T09:03:59.198Z,13.12
2022-11-08T09:06:25.458Z,12.87
2022-11-08T09:08:51.719Z,13.18
2022-11-08T09:11:17.989Z,13.29
2022-11-08T09:13:44.277Z,13.38
2022-11-08T09:16:10.594Z,13.58
2022-11-08T09:18:37.025Z,13.50
2022-11-08T09:21:04.287Z,13.64
2022-11-08T09:23:30.602Z,13.30
2022-11-08T09:25:56.862Z,13.28
2022-11-08T09:28:26.921Z,13.52
2022-11-08T09:30:56.430Z,13.40
2022-11-08T09:33:23.008Z,13.95
2022-11-08T09:35:49.290Z,13.78
2022-11-08T09:38:17.477Z,13.98
2022-11-08T09:40:45.996Z,13.97
2022-11-08T09:43:12.453Z,14.28
2022-11-08T09:45:38.735Z,14.29
2022-11-08T09:48:05.814Z,14.46
2022-11-08T09:50:32.309Z,14.44
2022-11-08T09:52:58.612Z,14.29
2022-11-08T09:55:24.883Z,14.53
2022-11-08T09:57:51.492Z,14.42
2022-11-08T10:00:17.945Z,14.51
2022-11-08T10:02:44.190Z,14.97
2022-11-08T10:05:11.079Z,14.79
2022-11-08T10:07:37.361Z,15.06
2022-11-08T10:10:03.725Z,15.07
2022-11-08T10:12:30.202Z,15.19
2022-11-08T10:14:56.463Z,15.66
2022-11-08T10:17:24.549Z,15.76
2022-11-08T10:19:50.974Z,15.52
2022-11-08T10:22:17.868Z,15.73
2022-11-08T10:24:44.280Z,16.10
2022-11-08T10:27:10.546Z,15.53
2022-11-08T10:29:36.890Z,15.92
2022-11-08T10:32:03.142Z,16.07
2022-11-08T10:34:29.443Z,15.99
2022-11-08T10:36:55.708Z,15.85
2022-11-08T10:39:21.962Z,16.00
2022-11-08T10:41:48.279Z,16.35
2022-11-08T10:44:15.346Z,16.35
2022-11-08T10:46:41.652Z,16.25
2022-11-08T10:49:07.902Z,16.05
2022-11-08T10:51:34.191Z,16.45
2022-11-08T10:54:01.000Z,16.49
2022-11-08T10:56:27.303Z,16.75
2022-11-08T10:58:53.555Z,16.90
2022-11-08T11:01:19.910Z,16.59
2022-11-08T11:03:46.314Z,16.97
2022-11-08T11:06:12.570Z,17.06
2022-11-08T11:08:38.836Z,17.07
2022-11-08T11:11:05.284Z,17.28
2022-11-08T11:13:31.543Z,17.10
2022-11-08T11:16:03.246Z,17.04
2022-11-08T11:18:29.608Z,17.20
2022-11-08T11:20:55.887Z,17.22
2022-11-08T11:23:22.180Z,17.02
2022-11-08T11:25:48.443Z,17.16
2022-11-08T11:28:15.041Z,17.20
2022-11-08T11:30:42.091Z,17.06
2022-11-08T11:33:08.389Z,17.14
2022-11-08T11:35:34.836Z,17.42
2022-11-08T11:38:01.334Z,17.23
2022-11-08T11:40:27.673Z,17.32
2022-11-08T11:42:53.926Z,17.40
2022-11-08T11:45:20.386Z,17.49
2022-11-08T11:47:50.303Z,17.31
2022-11-08T11:50:16.691Z,17.36
2022-11-08T11:52:42.942Z,17.38
2022-11-08T11:55:09.639Z,17.19
2022-11-08T11:57:36.391Z,17.43
2022-11-08T12:00:04.736Z,17.26
2022-11-08T12:02:31.161Z,17.24
2022-11-08T12:04:57.463Z,17.19
2022-11-08T12:07:23.731Z,17.41
2022-11-08T12:09:50.004Z,17.37
2022-11-08T12:12:16.276Z,17.31
2022-11-08T12:14:42.542Z,17.29
2022-11-08T12:17:09.161Z,17.36
2022-11-08T12:19:35.427Z,17.22
2022-11-08T12:22:01.694Z,17.04
2022-11-08T12:24:28.959Z,17.18
2022-11-08T12:26:55.422Z,17.18
2022-11-08T12:29:21.921Z,17.30
2022-11-08T12:31:48.212Z,17.40
2022-11-08T12:34:14.814Z,17.49
2022-11-08T12:36:41.102Z,17.21
2022-11-08T12:39:07.363Z,17.13
2022-11-08T12:41:34.681Z,17.15
2022-11-08T12:44:00.978Z,17.23
2022-11-08T12:46:27.238Z,17.01
2022-11-08T12:48:53.596Z,17.06
2022-11-08T12:51:19.902Z,17.11
2022-11-08T12:53:48.517Z,16.91
2022-11-08T12:56:14.803Z,16.93
2022-11-08T12:58:41.071Z,16.95
2022-11-08T13:01:07.436Z,16.99
2022-11-08T13:03:33.761Z,16.77
2022-11-08T13:06:00.644Z,16.96
2022-11-08T13:08:26.912Z,16.75
2022-11-08T13:10:53.193Z,16.82
2022-11-08T13:13:19.475Z,16.73
2022-11-08T13:15:45.884Z,16.69
2022-11-08T13:18:12.139Z,16.64
2022-11-08T13:20:38.438Z,16.57
2022-11-08T13:23:04.742Z,16.60
2022-11-08T13:25:31.156Z,16.17
2022-11-08T13:27:57.559Z,16.17
2022-11-08T13:30:23.848Z,16.06
2022-11-08T13:32:54.027Z,16.27
2022-11-08T13:35:20.978Z,16.26
2022-11-08T13:37:47.244Z,16.08
2022-11-08T13:40:13.502Z,15.98
2022-11-08T13:42:39.826Z,16.02
2022-11-08T13:45:06.232Z,16.00
2022-11-08T13:47:32.484Z,15.84
2022-11-08T13:49:59.933Z,15.84
2022-11-08T13:52:26.194Z,15.88
2022-11-08T13:54:52.516Z,15.69
2022-11-08T13:57:19.105Z,15.68
2022-11-08T13:59:45.371Z,15.46
2022-11-08T14:02:11.655Z,15.24
2022-11-08T14:04:40.242Z,15.21
2022-11-08T14:07:08.460Z,15.19
2022-11-08T14:09:35.540Z,15.20
2022-11-08T14:12:04.033Z,15.06
2022-11-08T14:14:33.830Z,15.25
2022-11-08T14:17:03.431Z,15.17
2022-11-08T14:19:30.074Z,15.19
2022-11-08T14:21:56.363Z,15.16
2022-11-08T14:24:22.681Z,15.19
2022-11-08T14:26:49.114Z,15.10
2022-11-08T14:29:15.879Z,15.23
2022-11-08T14:31:42.143Z,14.99
2022-11-08T14:34:08.405Z,15.02
2022-11-08T14:36:34.671Z,15.04
2022-11-08T14:39:00.938Z,15.00
2022-11-08T14:41:27.216Z,14.91
2022-11-08T14:43:53.522Z,14.88
2022-11-08T14:46:19.968Z,14.88
2022-11-08T14:48:46.227Z,14.87
2022-11-08T14:51:13.131Z,14.80
2022-11-08T14:53:39.400Z,14.74
2022-11-08T14:56:05.671Z,14.70
2022-11-08T14:58:36.806Z,14.42
2022-11-08T15:01:06.191Z,14.43
2022-11-08T15:03:32.546Z,14.49
2022-11-08T15:05:58.876Z,14.52
2022-11-08T15:08:25.159Z,14.44
2022-11-08T15:10:51.457Z,14.27
2022-11-08T15:13:17.986Z,14.24
2022-11-08T15:15:44.574Z,14.36
2022-11-08T15:18:11.201Z,14.27
2022-11-08T15:20:37.804Z,14.20
2022-11-08T15:23:04.064Z,14.14
2022-11-08T15:25:32.403Z,14.12
2022-11-08T15:27:58.677Z,14.08
2022-11-08T15:30:25.132Z,14.09
2022-11-08T15:32:51.441Z,14.05
2022-11-08T15:35:17.708Z,14.13
2022-11-08T15:37:44.203Z,14.10
2022-11-08T15:40:10.463Z,13.86
2022-11-08T15:42:40.570Z,13.90
2022-11-08T15:45:09.502Z,14.02
2022-11-08T15:47:35.904Z,13.82
2022-11-08T15:50:02.379Z,13.76
2022-11-08T15:52:28.644Z,13.79
2022-11-08T15:55:19.889Z,13.77
2022-11-08T15:57:46.342Z,13.75
2022-11-08T16:00:12.616Z,13.67
2022-11-08T16:02:38.870Z,13.50
2022-11-08T16:05:06.132Z,13.27
2022-11-08T16:07:32.400Z,13.48
2022-11-08T16:09:58.693Z,13.48
2022-11-08T16:12:24.966Z,13.44
2022-11-08T16:14:51.965Z,13.36
2022-11-08T16:17:18.235Z,13.33
2022-11-08T16:19:44.494Z,13.44
2022-11-08T16:22:11.523Z,13.42
2022-11-08T16:24:45.443Z,13.40
2022-11-08T16:27:11.743Z,13.41
2022-11-08T16:29:38.012Z,13.32
2022-11-08T16:32:04.289Z,13.39
2022-11-08T16:34:30.543Z,13.40
2022-11-08T16:36:56.871Z,13.31
2022-11-08T16:39:23.136Z,13.33
2022-11-08T16:41:49.397Z,13.24
2022-11-08T16:44:15.923Z,13.28
2022-11-08T16:46:42.205Z,13.26
2022-11-08T16:49:08.539Z,13.31
2022-11-08T16:51:34.869Z,13.27
2022-11-08T16:54:01.136Z,13.38
2022-11-08T16:56:27.452Z,13.27
2022-11-08T16:58:53.711Z,13.33
2022-11-08T17:01:21.049Z,13.33
2022-11-08T17:03:47.356Z,13.28
2022-11-08T17:06:13.674Z,13.25
2022-11-08T17:08:39.939Z,13.26
2022-11-08T17:11:06.259Z,13.35
2022-11-08T17:13:37.522Z,13.36
2022-11-08T17:16:06.489Z,13.42
2022-11-08T17:18:32.748Z,13.24
2022-11-08T17:21:07.574Z,13.24
2022-11-08T17:23:45.331Z,13.32
2022-11-08T17:26:11.641Z,13.34
2022-11-08T17:28:39.361Z,13.12
2022-11-08T17:31:09.626Z,13.15
2022-11-08T17:33:35.929Z,13.16
2022-11-08T17:36:02.186Z,13.11
2022-11-08T17:38:28.452Z,13.02
2022-11-08T17:40:54.720Z,13.10
2022-11-08T17:43:21.220Z,13.06
2022-11-08T17:48:40.295Z,13.11
2022-11-08T17:51:06.626Z,13.06
2022-11-08T17:53:32.884Z,13.04
2022-11-08T17:55:59.151Z,13.06
2022-11-08T17:58:28.470Z,12.92
2022-11-08T18:00:54.842Z,13.00
2022-11-08T18:03:21.543Z,12.99
2022-11-08T18:05:47.922Z,12.96
2022-11-08T18:08:14.226Z,12.93
2022-11-08T18:10:40.495Z,12.87
2022-11-08T18:13:06.765Z,12.94
2022-11-08T18:15:33.026Z,12.91
2022-11-08T18:17:59.321Z,12.90
2022-11-08T18:20:25.587Z,12.85
2022-11-08T18:22:51.883Z,12.87
2022-11-08T18:25:18.150Z,12.87
2022-11-08T18:27:44.406Z,12.82
2022-11-08T18:30:10.675Z,12.86
2022-11-08T18:32:36.952Z,12.84
2022-11-08T18:35:03.244Z,12.89
2022-11-08T18:37:29.883Z,12.73
2022-11-08T18:39:56.171Z,12.86
2022-11-08T18:42:22.470Z,12.90
2022-11-08T18:44:48.723Z,12.85
2022-11-08T18:47:14.982Z,12.96
2022-11-08T18:49:41.267Z,12.94
2022-11-08T18:52:07.697Z,12.93
2022-11-08T18:54:33.983Z,12.94
2022-11-08T18:57:00.427Z,12.90
2022-11-08T18:59:26.695Z,12.98
2022-11-08T19:01:54.308Z,12.93
2022-11-08T19:04:20.615Z,12.89
2022-11-08T19:06:51.617Z,12.95
2022-11-08T19:09:20.781Z,12.92
2022-11-08T19:11:47.991Z,12.96
2022-11-08T19:14:14.254Z,12.97
2022-11-08T19:16:42.601Z,13.07
2022-11-08T19:19:08.927Z,12.87
2022-11-08T19:21:35.293Z,12.98
2022-11-08T19:24:02.177Z,12.99
2022-11-08T19:26:29.118Z,13.03
2022-11-08T19:28:55.567Z,12.98
2022-11-08T19:31:21.931Z,12.98
2022-11-08T19:36:43.520Z,13.05
2022-11-08T19:39:10.727Z,13.07
2022-11-08T19:41:36.926Z,13.02
2022-11-08T19:44:03.271Z,13.08
2022-11-08T19:46:29.975Z,12.93
2022-11-08T19:48:56.530Z,13.04
2022-11-08T19:51:22.781Z,12.99
2022-11-08T19:53:49.199Z,13.07
2022-11-08T19:56:15.479Z,13.06
2022-11-08T19:58:41.960Z,13.06
2022-11-08T20:01:08.254Z,12.98
2022-11-08T20:03:34.685Z,12.94
2022-11-08T20:06:00.949Z,12.91
2022-11-08T20:08:28.754Z,12.98
2022-11-08T20:10:55.033Z,12.92
2022-11-08T20:13:21.325Z,12.99
2022-11-08T20:15:47.601Z,12.88
2022-11-08T20:18:14.048Z,12.96
2022-11-08T20:20:40.374Z,13.04
2022-11-08T20:23:06.719Z,13.09
2022-11-08T20:25:34.165Z,13.06
2022-11-08T20:28:00.419Z,13.11
2022-11-08T20:30:26.703Z,13.01
2022-11-08T20:32:52.958Z,12.91
2022-11-08T20:35:23.350Z,13.00
2022-11-08T20:37:49.959Z,12.94
2022-11-08T20:40:16.392Z,12.91
2022-11-08T20:42:42.643Z,12.91
2022-11-08T20:45:14.566Z,12.89
2022-11-08T20:47:41.295Z,12.84
2022-11-08T20:50:07.548Z,12.80
2022-11-08T20:52:33.965Z,12.84
2022-11-08T20:55:00.219Z,12.83
2022-11-08T20:57:26.483Z,12.81
2022-11-08T20:59:53.721Z,12.75
2022-11-08T21:02:20.021Z,12.74
2022-11-08T21:04:46.325Z,12.72
2022-11-08T21:08:01.220Z,12.71
2022-11-08T21:10:19.707Z,12.73
2022-11-08T21:12:45.200Z,12.71
2022-11-08T21:15:12.255Z,12.63
2022-11-08T21:17:38.503Z,12.62
2022-11-08T21:20:08.059Z,12.62
2022-11-08T21:22:34.321Z,12.59
2022-11-08T21:25:00.579Z,12.55
2022-11-08T21:27:29.751Z,12.56
2022-11-08T21:29:56.414Z,12.55
2022-11-08T21:32:22.711Z,12.62
2022-11-08T21:34:48.996Z,12.58
2022-11-08T21:37:15.320Z,12.73
2022-11-08T21:39:41.963Z,12.74
2022-11-08T21:42:08.266Z,12.78
2022-11-08T21:44:37.309Z,12.82
2022-11-08T21:47:03.647Z,12.69
2022-11-08T21:49:29.917Z,12.74
2022-11-08T21:51:56.245Z,12.70
2022-11-08T21:54:22.578Z,12.70
2022-11-08T21:56:48.845Z,12.75
2022-11-08T21:59:15.103Z,12.66
2022-11-08T22:01:41.426Z,12.79
2022-11-08T22:04:08.200Z,12.85
2022-11-08T22:06:36.137Z,12.83
2022-11-08T22:09:02.494Z,12.83
2022-11-08T22:11:28.917Z,12.77
2022-11-08T22:13:55.189Z,12.64
2022-11-08T22:16:21.490Z,12.70
2022-11-08T22:19:04.109Z,12.63
2022-11-08T22:21:40.400Z,12.58
2022-11-08T22:24:06.907Z,12.70
2022-11-08T22:26:33.231Z,12.55
2022-11-08T22:28:59.495Z,12.64
2022-11-08T22:31:25.773Z,12.64
2022-11-08T22:33:52.034Z,12.55
2022-11-08T22:36:21.316Z,12.59
2022-11-08T22:38:47.610Z,12.60
2022-11-08T22:41:13.865Z,12.61
2022-11-08T22:43:40.135Z,12.60
2022-11-08T22:46:06.416Z,12.39
2022-11-08T22:48:32.687Z,12.40
2022-11-08T22:50:59.048Z,12.47
2022-11-08T22:53:25.303Z,12.40
2022-11-08T22:55:51.610Z,12.46
2022-11-08T22:58:18.004Z,12.48
2022-11-08T23:00:44.284Z,12.54
2022-11-08T23:03:10.604Z,12.48
2022-11-08T23:08:26.945Z,12.50
2022-11-08T23:11:11.997Z,12.45
2022-11-08T23:13:56.643Z,12.39
2022-11-08T23:16:31.815Z,12.45
2022-11-08T23:19:16.900Z,12.51
2022-11-08T23:22:01.770Z,12.37
2022-11-08T23:24:28.030Z,12.39
2022-11-08T23:27:12.932Z,12.34
2022-11-08T23:29:57.751Z,12.38
2022-11-08T23:32:24.071Z,12.32
2022-11-08T23:34:50.340Z,12.24
2022-11-08T23:37:16.596Z,12.35
2022-11-08T23:40:01.570Z,12.30
2022-11-08T23:42:46.456Z,12.32
2022-11-08T23:45:12.710Z,12.19
2022-11-08T23:47:38.982Z,12.13
2022-11-08T23:50:05.236Z,12.12
2022-11-08T23:52:31.495Z,12.17
2022-11-08T23:54:57.768Z,12.09
2022-11-08T23:57:24.025Z,12.03
2022-11-08T23:59:50.275Z,12.11
